Time;durP1;ratioP1;P1;durP2;ratioP2;P2;SDS_P1;SDS_P2;PMS_P1;PMS_P2;Temp;Humidity;BMP_temperature;BMP_pressure;BME280_temperature;BME280_humidity;BME280_pressure;Samples;Min_cycle;Max_cycle;Signal;HPM_P1;HPM_P2
2023/12/11 00:00:16;;;;;;;22.13;5.63;;;;;;;10.55;98.14;99396.53;4980239;28;20062;-81
2023/12/11 00:02:44;;;;;;;27.35;6.63;;;;;;;10.62;97.78;99392.19;4979670;28;20054;-82
2023/12/11 00:05:10;;;;;;;20.73;5.38;;;;;;;10.57;97.57;99395.34;4978980;28;20042;-82
2023/12/11 00:07:37;;;;;;;23.33;5.38;;;;;;;10.56;97.93;99383.25;4979290;28;20087;-84
2023/12/11 00:10:04;;;;;;;19.00;5.22;;;;;;;10.58;97.55;99381.28;4979350;28;20054;-82
2023/12/11 00:12:32;;;;;;;20.90;4.93;;;;;;;10.70;96.93;99393.88;4979276;28;20548;-81
2023/12/11 00:14:59;;;;;;;22.65;5.25;;;;;;;10.68;96.99;99390.63;4977787;28;20066;-81
2023/12/11 00:17:28;;;;;;;26.58;5.95;;;;;;;10.75;96.95;99386.28;4975573;28;20110;-81
2023/12/11 00:19:56;;;;;;;24.20;4.88;;;;;;;10.78;96.79;99385.91;4976025;28;20109;-82
2023/12/11 00:22:23;;;;;;;25.55;5.95;;;;;;;10.73;96.62;99394.31;4987042;28;20050;-82
2023/12/11 00:24:52;;;;;;;23.85;5.65;;;;;;;10.69;96.92;99394.88;4978791;28;20054;-82
2023/12/11 00:27:19;;;;;;;21.60;5.15;;;;;;;10.67;96.80;99384.59;4970860;28;20083;-82
2023/12/11 00:29:46;;;;;;;24.00;5.70;;;;;;;10.62;96.99;99389.56;4963268;28;20055;-81
2023/12/11 00:32:12;;;;;;;27.02;5.93;;;;;;;10.64;96.87;99385.75;4969010;28;20069;-82
2023/12/11 00:34:39;;;;;;;30.63;6.75;;;;;;;10.57;97.01;99384.88;4979165;28;20077;-83
2023/12/11 00:37:07;;;;;;;29.45;5.63;;;;;;;10.54;96.93;99384.44;4978278;28;20050;-82
2023/12/11 00:39:34;;;;;;;27.48;5.35;;;;;;;10.54;97.28;99389.69;4974543;28;20054;-83
2023/12/11 00:42:00;;;;;;;31.35;6.15;;;;;;;10.55;96.90;99380.84;4960101;28;20055;-82
2023/12/11 00:44:27;;;;;;;26.95;5.18;;;;;;;10.55;96.87;99397.34;4960191;28;20165;-82
2023/12/11 00:46:54;;;;;;;25.27;5.97;;;;;;;10.53;96.74;99386.25;4960229;28;20058;-82
2023/12/11 00:49:20;;;;;;;23.30;4.90;;;;;;;10.58;96.50;99398.78;4960547;28;20078;-83
2023/12/11 00:51:48;;;;;;;22.63;5.43;;;;;;;10.58;96.56;99380.47;4963746;28;20047;-82
2023/12/11 00:54:16;;;;;;;20.42;5.00;;;;;;;10.59;96.57;99397.78;4963431;28;20059;-82
2023/12/11 00:56:43;;;;;;;20.95;5.57;;;;;;;10.50;96.88;99389.22;4963124;28;20055;-82
2023/12/11 00:59:10;;;;;;;22.98;5.32;;;;;;;10.49;96.82;99384.19;4963434;28;20059;-82
2023/12/11 01:01:36;;;;;;;28.00;5.10;;;;;;;10.56;96.57;99392.91;4978675;28;20057;-81
2023/12/11 01:04:03;;;;;;;26.65;5.60;;;;;;;10.58;96.66;99390.94;4982838;28;20192;-81
2023/12/11 01:06:30;;;;;;;19.77;5.28;;;;;;;10.51;96.66;99392.66;4982756;28;20552;-81
2023/12/11 01:08:57;;;;;;;19.27;4.57;;;;;;;10.52;96.80;99396.91;4982930;28;20047;-82
2023/12/11 01:11:25;;;;;;;20.80;4.72;;;;;;;10.42;97.20;99393.75;4987908;28;20082;-81
2023/12/11 01:13:51;;;;;;;22.80;4.43;;;;;;;10.43;97.27;99398.81;4978468;28;20036;-81
2023/12/11 01:16:19;;;;;;;25.30;5.65;;;;;;;10.41;97.67;99405.22;4971264;28;20051;-80
2023/12/11 01:18:45;;;;;;;21.75;5.68;;;;;;;10.33;98.17;99393.09;4973871;28;20054;-81
2023/12/11 01:21:12;;;;;;;26.75;4.90;;;;;;;10.40;98.21;99401.00;4981700;28;20568;-82
2023/12/11 01:23:40;;;;;;;19.48;4.70;;;;;;;10.44;97.87;99397.81;4981412;28;20054;-83
2023/12/11 01:26:07;;;;;;;24.08;5.00;;;;;;;10.40;98.11;99388.72;4981039;28;20101;-81
2023/12/11 01:28:35;;;;;;;24.77;5.65;;;;;;;10.38;98.02;99401.19;4981081;28;20109;-81
2023/12/11 01:31:02;;;;;;;24.40;5.57;;;;;;;10.40;98.15;99401.00;4966096;28;20055;-81
2023/12/11 01:33:29;;;;;;;17.80;4.72;;;;;;;10.40;98.52;99396.56;4965573;28;20153;-82
2023/12/11 01:38:23;;;;;;;27.55;4.95;;;;;;;10.44;99.09;99404.84;4959596;28;20153;-86
2023/12/11 01:40:53;;;;;;;23.80;4.80;;;;;;;10.45;99.31;99407.28;4961791;28;20047;-85
2023/12/11 01:43:20;;;;;;;28.63;5.22;;;;;;;10.53;99.45;99396.72;4958209;29;20121;-85
2023/12/11 01:46:03;;;;;;;21.42;6.35;;;;;;;10.41;99.57;99394.75;4962550;28;20106;-85
2023/12/11 01:48:30;;;;;;;28.92;5.25;;;;;;;10.30;99.88;99386.44;4958172;29;20047;-86
2023/12/11 01:51:02;;;;;;;24.92;5.43;;;;;;;10.41;99.63;99410.44;4965816;28;20062;-84
2023/12/11 01:53:33;;;;;;;23.00;5.25;;;;;;;10.40;99.78;99414.09;4964385;29;20109;-85
2023/12/11 01:56:00;;;;;;;22.65;4.70;;;;;;;10.33;99.51;99403.56;4963210;28;20043;-84
2023/12/11 01:58:29;;;;;;;22.13;5.38;;;;;;;10.50;98.96;99412.78;4963943;28;20055;-85
2023/12/11 02:00:57;;;;;;;20.77;5.05;;;;;;;10.53;98.59;99403.75;4964013;28;20065;-86
2023/12/11 02:03:25;;;;;;;22.40;6.10;;;;;;;10.51;98.03;99401.31;4971682;28;20043;-86
2023/12/11 02:05:55;;;;;;;26.13;5.85;;;;;;;10.66;97.32;99408.31;4963240;28;20055;-86
2023/12/11 02:08:23;;;;;;;23.27;5.22;;;;;;;10.63;96.56;99384.13;4954918;28;20047;-86
2023/12/11 02:10:54;;;;;;;20.60;4.65;;;;;;;10.72;96.03;99397.09;4969870;28;20055;-85
2023/12/11 02:13:22;;;;;;;33.15;5.47;;;;;;;10.66;95.51;99363.84;4958717;29;20051;-87
2023/12/11 02:15:50;;;;;;;28.35;5.20;;;;;;;10.76;95.07;99386.09;4967181;28;20051;-86
2023/12/11 02:18:18;;;;;;;25.55;4.90;;;;;;;10.81;94.88;99388.94;4966671;28;20286;-86
2023/12/11 02:20:56;;;;;;;23.52;5.25;;;;;;;10.77;95.23;99385.09;4965210;28;20111;-86
2023/12/11 02:23:45;;;;;;;25.45;5.93;;;;;;;10.66;94.91;99375.13;4963721;29;20509;-86
2023/12/11 02:26:31;;;;;;;24.55;5.63;;;;;;;10.76;94.50;99378.22;4963796;29;20051;-86
2023/12/11 02:29:05;;;;;;;22.92;4.90;;;;;;;10.70;94.57;99368.50;4964028;29;20175;-85
2023/12/11 02:31:53;;;;;;;23.58;5.38;;;;;;;10.70;94.49;99358.06;4963650;29;20074;-86
2023/12/11 02:34:23;;;;;;;24.63;5.45;;;;;;;10.72;94.05;99363.91;4963238;29;20102;-86
2023/12/11 02:36:52;;;;;;;21.02;4.68;;;;;;;10.62;93.96;99360.78;4962260;28;20047;-85
2023/12/11 02:39:27;;;;;;;20.35;4.65;;;;;;;10.64;94.13;99366.63;4962121;28;20047;-86
2023/12/11 02:41:58;;;;;;;21.73;4.53;;;;;;;10.68;93.43;99357.44;4965320;28;20047;-86
2023/12/11 02:44:25;;;;;;;21.60;4.55;;;;;;;10.74;92.94;99353.25;4972647;28;20065;-85
2023/12/11 02:46:53;;;;;;;19.25;5.13;;;;;;;10.69;92.91;99345.16;4962479;28;20079;-86
2023/12/11 02:49:20;;;;;;;21.77;5.22;;;;;;;10.68;92.90;99352.19;4953272;29;20149;-85
2023/12/11 02:51:47;;;;;;;26.80;4.97;;;;;;;10.66;92.63;99345.53;4961732;28;20055;-85
2023/12/11 02:54:13;;;;;;;16.73;4.45;;;;;;;10.58;92.07;99328.16;4961938;28;20057;-85
2023/12/11 02:56:40;;;;;;;24.00;4.45;;;;;;;10.60;92.36;99326.97;4965918;28;20078;-84
2023/12/11 02:59:09;;;;;;;26.67;5.32;;;;;;;10.58;92.07;99328.97;4960892;29;20087;-85
2023/12/11 03:01:38;;;;;;;22.58;5.35;;;;;;;10.69;91.95;99319.81;4961815;28;20051;-85
2023/12/11 03:04:06;;;;;;;22.02;4.78;;;;;;;10.71;91.57;99312.56;4965318;28;20070;-85
2023/12/11 03:06:32;;;;;;;22.85;5.40;;;;;;;10.74;90.95;99320.03;4967993;28;20051;-85
2023/12/11 03:09:02;;;;;;;21.05;5.15;;;;;;;10.81;90.69;99309.63;4961211;28;20059;-84
2023/12/11 03:11:29;;;;;;;26.13;5.22;;;;;;;10.75;90.61;99294.69;4962129;28;20054;-84
2023/12/11 03:13:56;;;;;;;21.90;5.32;;;;;;;10.76;90.74;99289.28;4960492;28;20054;-84
2023/12/11 03:16:24;;;;;;;26.52;5.72;;;;;;;10.84;90.16;99291.75;4960128;28;20467;-83
2023/12/11 03:18:51;;;;;;;22.42;4.72;;;;;;;10.71;89.98;99260.25;4960097;29;20059;-84
2023/12/11 03:21:18;;;;;;;22.58;4.85;;;;;;;10.79;89.82;99257.50;4960699;28;20106;-84
2023/12/11 03:23:45;;;;;;;19.58;5.10;;;;;;;10.68;89.62;99271.09;4960466;28;20075;-84
2023/12/11 03:26:12;;;;;;;24.02;5.13;;;;;;;10.75;89.61;99265.91;4959516;29;20160;-85
2023/12/11 03:28:38;;;;;;;19.60;5.03;;;;;;;10.73;89.65;99271.34;4965465;29;20055;-86
2023/12/11 03:31:05;;;;;;;23.15;5.28;;;;;;;10.74;89.84;99253.81;4966891;28;20059;-86
2023/12/11 03:33:33;;;;;;;19.65;5.20;;;;;;;10.78;89.49;99261.09;4977679;28;20079;-87
2023/12/11 03:36:02;;;;;;;21.00;5.10;;;;;;;10.72;89.51;99246.16;4977352;28;20062;-87
2023/12/11 03:38:29;;;;;;;23.75;4.80;;;;;;;10.67;89.39;99251.16;4967535;28;20057;-85
2023/12/11 03:40:56;;;;;;;19.58;5.00;;;;;;;10.63;89.56;99239.47;4959974;28;20058;-85
2023/12/11 03:43:22;;;;;;;22.70;4.72;;;;;;;10.47;89.93;99243.16;4961392;28;20466;-85
2023/12/11 03:45:49;;;;;;;15.73;4.53;;;;;;;10.60;89.95;99255.53;4961460;28;20090;-84
2023/12/11 03:48:16;;;;;;;19.30;4.85;;;;;;;10.54;90.28;99248.44;4960523;28;20510;-85
2023/12/11 03:50:44;;;;;;;17.25;5.32;;;;;;;10.53;90.38;99246.81;4961059;28;20086;-85
2023/12/11 03:53:11;;;;;;;21.20;4.85;;;;;;;10.69;89.75;99243.13;4961770;29;20061;-86
2023/12/11 03:55:37;;;;;;;20.55;4.93;;;;;;;10.65;89.73;99250.53;4961513;28;20054;-86
2023/12/11 03:58:04;;;;;;;17.75;4.53;;;;;;;10.68;89.36;99244.13;4959976;28;20051;-86
2023/12/11 04:00:31;;;;;;;16.67;4.30;;;;;;;10.81;89.13;99239.81;4962169;28;20066;-87
2023/12/11 04:02:57;;;;;;;20.30;4.28;;;;;;;10.84;88.58;99249.88;4964373;28;20051;-84
2023/12/11 04:05:24;;;;;;;16.48;4.32;;;;;;;10.85;88.54;99235.00;4965030;28;20043;-85
2023/12/11 04:07:52;;;;;;;18.90;4.18;;;;;;;10.84;88.41;99208.03;4966452;28;20161;-85
2023/12/11 04:10:19;;;;;;;22.50;5.30;;;;;;;10.82;88.31;99215.25;4966435;29;20098;-85
2023/12/11 04:12:46;;;;;;;19.55;4.53;;;;;;;10.79;88.76;99215.63;4965988;28;20051;-84
2023/12/11 04:15:13;;;;;;;18.30;3.92;;;;;;;10.70;88.83;99210.72;4962895;28;20043;-84
2023/12/11 04:17:42;;;;;;;23.27;4.65;;;;;;;10.63;88.91;99195.00;4958836;29;20123;-85
2023/12/11 04:20:09;;;;;;;22.23;4.63;;;;;;;10.61;88.88;99197.78;4958398;29;20085;-84
2023/12/11 04:22:38;;;;;;;18.70;4.90;;;;;;;10.62;89.18;99203.84;4963130;29;20058;-86
2023/12/11 04:25:07;;;;;;;15.82;4.68;;;;;;;10.68;88.92;99195.22;4976364;28;20066;-86
2023/12/11 04:27:33;;;;;;;18.15;4.40;;;;;;;10.68;88.83;99191.81;4977212;28;20075;-84
2023/12/11 04:30:00;;;;;;;21.38;5.00;;;;;;;10.63;88.58;99210.69;4973133;28;20079;-86
2023/12/11 04:32:27;;;;;;;15.40;4.20;;;;;;;10.60;89.05;99209.25;4973581;28;20075;-85
2023/12/11 04:34:53;;;;;;;17.50;4.43;;;;;;;10.65;89.10;99198.22;4973013;28;20574;-85
2023/12/11 04:37:23;;;;;;;27.40;4.55;;;;;;;10.80;89.05;99206.78;4973077;28;20051;-84
2023/12/11 04:39:50;;;;;;;15.55;3.83;;;;;;;10.78;88.80;99187.84;4970470;28;20051;-87
2023/12/11 04:42:18;;;;;;;17.63;4.18;;;;;;;10.89;88.66;99189.91;4967509;29;20082;-85
2023/12/11 04:44:45;;;;;;;20.27;4.65;;;;;;;10.89;89.56;99203.00;4968554;28;20062;-85
2023/12/11 04:47:12;;;;;;;18.23;4.72;;;;;;;10.88;89.74;99197.94;4967391;28;20097;-85
2023/12/11 04:49:38;;;;;;;18.48;3.95;;;;;;;10.94;89.57;99200.59;4967022;29;20051;-84
2023/12/11 04:52:06;;;;;;;21.92;5.00;;;;;;;10.96;89.32;99205.66;4967191;28;20059;-86
2023/12/11 04:54:33;;;;;;;17.80;4.50;;;;;;;10.89;89.88;99213.47;4969209;28;20106;-86
2023/12/11 04:56:59;;;;;;;18.30;4.90;;;;;;;10.89;90.73;99220.50;4966890;29;20095;-85
2023/12/11 04:59:28;;;;;;;20.60;4.82;;;;;;;10.79;91.74;99220.88;4967248;28;20047;-85
2023/12/11 05:01:55;;;;;;;18.63;4.93;;;;;;;10.68;92.33;99217.97;4968834;28;20055;-85
2023/12/11 05:04:22;;;;;;;19.77;4.30;;;;;;;10.78;92.62;99234.13;4968944;28;20057;-85
2023/12/11 05:06:49;;;;;;;20.30;4.63;;;;;;;10.56;93.99;99215.06;4965742;28;20115;-85
2023/12/11 05:09:16;;;;;;;25.77;4.97;;;;;;;10.44;96.04;99221.78;4966418;28;20059;-85
2023/12/11 05:11:42;;;;;;;13.38;4.80;;;;;;;10.36;96.76;99206.28;4965607;28;20055;-85
2023/12/11 05:14:09;;;;;;;19.45;5.30;;;;;;;10.35;97.87;99212.50;4965998;28;20063;-84
2023/12/11 05:16:37;;;;;;;18.52;4.50;;;;;;;10.27;98.71;99219.47;4964093;28;20047;-85
2023/12/11 05:19:08;;;;;;;21.70;5.63;;;;;;;10.32;99.90;99223.31;4963245;28;20051;-85
2023/12/11 05:21:35;;;;;;;20.90;4.72;;;;;;;10.24;100.00;99253.03;4963170;28;20065;-84
2023/12/11 05:24:02;;;;;;;17.02;4.40;;;;;;;10.28;100.00;99255.06;4965103;28;20108;-85
2023/12/11 05:26:29;;;;;;;20.48;4.97;;;;;;;10.15;100.00;99230.56;4963446;28;20069;-83
2023/12/11 05:29:01;;;;;;;21.58;4.80;;;;;;;10.08;100.00;99255.84;4966352;28;20443;-85
2023/12/11 05:31:28;;;;;;;15.93;5.10;;;;;;;9.87;100.00;99251.44;4965991;29;20051;-84
2023/12/11 05:33:59;;;;;;;15.40;4.30;;;;;;;9.77;100.00;99256.13;4964148;28;20047;-84
2023/12/11 05:36:28;;;;;;;16.73;5.50;;;;;;;9.72;100.00;99263.72;4966477;28;20088;-83
2023/12/11 05:38:56;;;;;;;22.60;5.28;;;;;;;9.74;100.00;99262.53;4964538;28;20083;-83
2023/12/11 05:41:23;;;;;;;25.42;6.95;;;;;;;9.71;100.00;99246.41;4969613;28;20071;-83
2023/12/11 05:43:50;;;;;;;20.20;5.57;;;;;;;9.53;100.00;99221.50;4963483;28;20550;-84
2023/12/11 05:46:20;;;;;;;20.45;5.00;;;;;;;9.65;100.00;99240.94;4963111;28;20047;-84
2023/12/11 05:49:10;;;;;;;18.65;5.85;;;;;;;9.55;100.00;99216.09;4965111;28;20059;-83
2023/12/11 05:51:38;;;;;;;17.45;5.40;;;;;;;9.58;100.00;99234.00;4963773;29;20062;-83
2023/12/11 05:54:07;;;;;;;21.88;5.80;;;;;;;9.65;100.00;99227.06;4963735;28;20048;-83
2023/12/11 05:56:35;;;;;;;25.38;4.55;;;;;;;9.72;100.00;99263.72;4967293;28;20091;-85
2023/12/11 05:59:02;;;;;;;28.25;11.07;;;;;;;9.60;100.00;99240.66;4965218;28;20059;-83
2023/12/11 06:01:29;;;;;;;20.35;5.28;;;;;;;9.69;100.00;99271.91;4965684;28;20051;-84
2023/12/11 06:04:00;;;;;;;22.40;5.45;;;;;;;9.46;100.00;99243.28;4968454;28;20055;-84
2023/12/11 06:06:27;;;;;;;16.40;4.32;;;;;;;9.51;100.00;99254.00;4969795;28;20055;-85
2023/12/11 06:08:57;;;;;;;16.52;4.57;;;;;;;9.58;100.00;99252.28;4980119;28;20047;-83
2023/12/11 06:11:23;;;;;;;22.05;6.28;;;;;;;9.57;100.00;99235.81;4967795;28;20047;-83
2023/12/11 06:13:50;;;;;;;17.73;4.90;;;;;;;9.52;100.00;99227.72;4971247;28;20106;-82
2023/12/11 06:16:17;;;;;;;15.70;4.40;;;;;;;9.44;100.00;99230.44;4978283;28;20054;-85
2023/12/11 06:18:44;;;;;;;20.33;4.78;;;;;;;9.46;100.00;99228.44;4988270;28;20049;-85
2023/12/11 06:21:40;;;;;;;;;;;;;;;;;;;;;
2023/12/11 06:24:28;;;;;;;18.73;5.07;;;;;;;9.53;100.00;99212.84;4979374;28;20035;-86
2023/12/11 06:27:08;;;;;;;19.10;4.80;;;;;;;9.53;100.00;99224.09;4972752;28;20051;-81
2023/12/11 06:29:50;;;;;;;25.08;4.88;;;;;;;9.56;100.00;99205.47;4974957;28;20079;-82
2023/12/11 06:32:28;;;;;;;17.52;4.20;;;;;;;9.57;100.00;99209.69;4974648;28;20055;-84
2023/12/11 06:35:03;;;;;;;19.60;4.75;;;;;;;9.49;100.00;99209.78;4979480;28;20097;-80
2023/12/11 06:37:30;;;;;;;12.50;3.92;;;;;;;9.48;100.00;99202.16;4968208;29;20043;-82
2023/12/11 06:40:07;;;;;;;17.00;6.18;;;;;;;9.56;100.00;99231.56;4974688;28;20062;-83
2023/12/11 06:42:38;;;;;;;19.00;4.80;;;;;;;9.63;100.00;99229.84;4972480;28;20051;-85
2023/12/11 06:45:12;;;;;;;19.10;4.63;;;;;;;9.56;100.00;99195.03;4978050;28;20046;-85
2023/12/11 06:47:48;;;;;;;12.90;4.10;;;;;;;9.57;100.00;99219.34;4976038;28;20047;-85
2023/12/11 06:50:19;;;;;;;13.63;3.50;;;;;;;9.50;100.00;99208.81;4974650;28;20111;-86
2023/12/11 06:52:46;;;;;;;15.82;4.15;;;;;;;9.65;100.00;99214.81;4971798;29;20059;-85
2023/12/11 06:55:24;;;;;;;14.80;4.30;;;;;;;9.55;100.00;99193.41;4966153;28;20047;-85
2023/12/11 06:57:54;;;;;;;18.08;5.22;;;;;;;9.66;100.00;99218.22;4967673;28;20061;-85
2023/12/11 07:00:25;;;;;;;15.85;4.78;;;;;;;9.62;100.00;99212.56;4957804;29;20066;-84
2023/12/11 07:02:58;;;;;;;20.33;4.43;;;;;;;9.64;100.00;99207.16;4964004;29;20077;-86
2023/12/11 07:05:33;;;;;;;21.92;5.22;;;;;;;9.60;100.00;99192.84;4963997;28;20510;-85
2023/12/11 07:08:00;;;;;;;16.33;4.88;;;;;;;9.74;100.00;99218.13;4970698;28;20046;-86
2023/12/11 07:10:30;;;;;;;18.85;4.50;;;;;;;9.73;100.00;99210.47;4972043;28;20066;-86
2023/12/11 07:12:59;;;;;;;16.70;4.93;;;;;;;9.79;100.00;99207.94;4961995;28;20110;-86
2023/12/11 07:15:38;;;;;;;18.30;4.50;;;;;;;9.88;100.00;99221.69;4962396;28;20078;-86
2023/12/11 07:18:13;;;;;;;23.70;4.75;;;;;;;9.94;100.00;99210.47;4961081;29;20103;-86
2023/12/11 07:20:45;;;;;;;18.52;4.53;;;;;;;10.09;100.00;99198.16;4961758;29;20398;-86
2023/12/11 07:23:16;;;;;;;16.33;4.90;;;;;;;10.15;99.91;99207.88;4961263;29;20106;-85
2023/12/11 07:25:45;;;;;;;25.15;6.00;;;;;;;10.27;99.73;99201.16;4960607;28;20058;-86
2023/12/11 07:28:17;;;;;;;19.27;5.35;;;;;;;10.28;99.90;99212.44;4961975;28;20051;-86
2023/12/11 07:30:52;;;;;;;;;;;;;;;10.33;99.56;99211.88;4965556;29;20079;-87
2023/12/11 07:33:22;;;;;;;23.15;5.10;;;;;;;10.32;98.74;99202.41;4960267;28;19960;-87
2023/12/11 07:35:58;;;;;;;15.73;5.32;;;;;;;10.36;98.90;99221.97;4964905;28;20043;-88
2023/12/11 07:38:26;;;;;;;19.60;5.60;;;;;;;10.38;98.92;99219.97;4977312;23;20062;-82
2023/12/11 07:40:55;;;;;;;19.30;4.40;;;;;;;10.45;98.45;99205.91;4976577;28;20093;-81
2023/12/11 07:43:21;;;;;;;17.73;5.35;;;;;;;10.41;98.76;99206.47;4980491;28;20110;-82
2023/12/11 07:45:48;;;;;;;20.45;4.47;;;;;;;10.49;97.88;99219.44;4990202;28;20050;-82
2023/12/11 07:48:15;;;;;;;17.95;4.65;;;;;;;10.57;97.07;99214.06;4979148;28;20058;-81
2023/12/11 07:50:41;;;;;;;17.27;4.20;;;;;;;10.55;96.88;99223.91;4979906;28;20050;-82
2023/12/11 07:53:08;;;;;;;17.58;4.10;;;;;;;10.56;97.16;99215.88;4972504;28;20050;-82
2023/12/11 07:55:35;;;;;;;17.70;4.45;;;;;;;10.61;96.86;99210.06;4972328;28;20050;-80
2023/12/11 07:58:03;;;;;;;13.93;3.85;;;;;;;10.58;97.23;99220.91;4972071;28;20169;-82
2023/12/11 08:00:30;;;;;;;15.57;3.90;;;;;;;10.56;97.14;99230.75;4966531;28;20137;-81
2023/12/11 08:02:57;;;;;;;16.83;4.50;;;;;;;10.59;97.23;99240.84;4973844;28;20051;-81
2023/12/11 08:05:25;;;;;;;26.38;5.22;;;;;;;10.56;97.38;99241.22;4977145;28;20054;-83
2023/12/11 08:07:51;;;;;;;23.42;5.80;;;;;;;10.58;97.21;99245.25;4977466;28;20117;-82
2023/12/11 08:10:19;;;;;;;22.15;4.60;;;;;;;10.58;97.17;99252.28;4979495;28;20107;-82
2023/12/11 08:12:49;;;;;;;16.80;4.72;;;;;;;10.57;97.12;99248.06;4979928;28;20058;-82
2023/12/11 08:15:18;;;;;;;22.02;5.35;;;;;;;10.62;97.08;99238.66;4978735;28;20137;-82
2023/12/11 08:17:44;;;;;;;19.75;4.50;;;;;;;10.67;96.33;99221.56;4979903;28;20051;-82
2023/12/11 08:20:14;;;;;;;15.80;4.05;;;;;;;10.76;94.90;99223.06;4979200;28;20089;-82
2023/12/11 08:22:40;;;;;;;17.55;4.50;;;;;;;10.79;94.45;99225.28;4978846;28;20047;-82
2023/12/11 08:25:07;;;;;;;18.50;4.10;;;;;;;10.79;94.01;99228.72;4961370;28;20106;-83
2023/12/11 08:27:34;;;;;;;19.63;5.47;;;;;;;10.75;93.91;99224.06;4971867;28;20081;-82
2023/12/11 08:30:01;;;;;;;18.67;5.00;;;;;;;10.75;93.73;99234.53;4978305;28;20078;-82
2023/12/11 08:32:29;;;;;;;17.13;4.18;;;;;;;10.73;93.61;99241.75;4978814;28;20051;-82
2023/12/11 08:34:55;;;;;;;20.52;4.97;;;;;;;10.79;92.98;99241.78;4967997;28;20051;-82
2023/12/11 08:37:22;;;;;;;25.23;4.97;;;;;;;10.82;92.40;99235.38;4971115;28;20046;-82
2023/12/11 08:39:49;;;;;;;14.45;4.30;;;;;;;10.87;92.22;99233.78;4978934;28;20497;-82
2023/12/11 08:42:15;;;;;;;15.07;3.95;;;;;;;10.94;92.36;99244.28;4970949;28;20059;-82
2023/12/11 08:44:42;;;;;;;26.70;5.32;;;;;;;10.90;92.50;99249.09;4973074;28;20051;-82
2023/12/11 08:47:09;;;;;;;18.80;4.30;;;;;;;10.91;92.01;99250.72;4964220;28;20102;-82
2023/12/11 08:49:37;;;;;;;24.42;4.68;;;;;;;11.00;91.33;99247.94;4978746;28;20082;-82
2023/12/11 08:52:04;;;;;;;22.40;4.63;;;;;;;11.00;90.97;99255.81;4962771;28;20068;-82
2023/12/11 08:54:31;;;;;;;24.17;5.90;;;;;;;11.02;91.32;99261.66;4978958;28;20051;-82
2023/12/11 08:56:57;;;;;;;17.13;4.50;;;;;;;11.03;90.58;99261.47;4970352;28;20047;-81
2023/12/11 08:59:24;;;;;;;18.35;4.57;;;;;;;11.08;90.39;99263.50;4975021;28;20473;-82
2023/12/11 09:01:51;;;;;;;23.33;4.82;;;;;;;11.05;90.43;99269.13;4978741;28;20057;-82
2023/12/11 09:04:17;;;;;;;21.52;5.68;;;;;;;11.07;90.41;99264.50;4966870;28;20114;-82
2023/12/11 09:06:45;;;;;;;18.13;4.47;;;;;;;11.06;90.05;99266.31;4958589;28;20470;-82
2023/12/11 09:09:12;;;;;;;15.20;4.97;;;;;;;11.11;89.43;99278.81;4968810;28;20055;-82
2023/12/11 09:11:39;;;;;;;10.77;3.58;;;;;;;11.16;88.95;99276.44;4981446;28;20060;-82
2023/12/11 09:14:05;;;;;;;11.00;3.67;;;;;;;11.17;88.86;99281.50;4981091;28;20050;-82
2023/12/11 09:16:34;;;;;;;16.33;5.65;;;;;;;11.22;88.90;99296.63;4980667;28;20515;-81
2023/12/11 09:19:01;;;;;;;14.57;4.38;;;;;;;11.18;88.79;99277.88;4972584;28;20096;-81
2023/12/11 09:21:28;;;;;;;18.85;3.80;;;;;;;11.22;88.21;99296.63;4984872;28;20109;-82
2023/12/11 09:23:57;;;;;;;20.55;4.60;;;;;;;11.20;88.04;99306.47;4979749;28;20055;-82
2023/12/11 09:26:23;;;;;;;15.85;4.07;;;;;;;11.24;87.77;99290.19;4978572;28;20500;-82
2023/12/11 09:28:50;;;;;;;15.05;4.20;;;;;;;11.26;88.14;99300.47;4987539;28;20101;-81
2023/12/11 09:31:19;;;;;;;14.43;4.13;;;;;;;11.29;88.27;99314.00;4977881;28;20608;-82
2023/12/11 09:33:46;;;;;;;13.45;3.60;;;;;;;11.27;87.88;99317.81;4978453;28;20489;-82
2023/12/11 09:36:13;;;;;;;15.10;4.10;;;;;;;11.28;88.13;99335.94;4981361;28;20204;-82
2023/12/11 09:38:39;;;;;;;12.95;3.25;;;;;;;11.27;88.27;99329.09;4981204;28;20047;-82
2023/12/11 09:41:07;;;;;;;20.98;4.88;;;;;;;11.30;88.62;99343.63;4981674;28;20059;-81
2023/12/11 09:43:35;;;;;;;22.30;5.20;;;;;;;11.30;88.43;99354.09;4983216;28;20473;-82
2023/12/11 09:46:07;;;;;;;22.20;4.47;;;;;;;11.27;88.44;99333.53;4978268;28;20106;-80
2023/12/11 09:48:34;;;;;;;17.73;4.22;;;;;;;11.34;89.09;99354.53;4983486;28;20110;-82
2023/12/11 09:51:02;;;;;;;16.52;3.97;;;;;;;11.37;89.04;99360.16;4981468;28;20057;-81
2023/12/11 09:53:31;;;;;;;15.05;4.40;;;;;;;11.34;89.07;99371.03;4978884;28;20059;-81
2023/12/11 09:55:59;;;;;;;23.00;5.10;;;;;;;11.31;90.02;99379.28;4982617;28;20051;-81
2023/12/11 09:58:27;;;;;;;27.63;4.78;;;;;;;11.23;90.29;99384.66;4979547;28;20043;-82
2023/12/11 10:01:00;;;;;;;16.15;4.10;;;;;;;11.18;90.26;99381.78;4974155;28;20054;-80
2023/12/11 10:03:27;;;;;;;;;;;;;;;11.22;90.63;99398.75;4962987;28;20053;-81
2023/12/11 10:05:58;;;;;;;12.52;4.07;;;;;;;11.07;91.43;99409.28;4975402;28;19930;-80
2023/12/11 10:08:25;;;;;;;22.17;5.25;;;;;;;10.93;93.03;99395.28;4972906;28;20482;-80
2023/12/11 10:11:09;;;;;;;19.00;5.30;;;;;;;11.00;93.72;99421.50;4983072;28;20050;-81
2023/12/11 10:13:39;;;;;;;21.50;4.65;;;;;;;10.93;93.64;99421.44;4985193;28;20089;-80
2023/12/11 10:16:09;;;;;;;21.17;4.47;;;;;;;10.94;93.38;99422.25;4986429;28;20050;-80
2023/12/11 10:18:47;;;;;;;16.00;4.45;;;;;;;11.05;93.07;99416.53;4983157;28;20082;-80
2023/12/11 10:21:14;;;;;;;16.15;3.92;;;;;;;10.97;93.13;99416.66;4977952;28;20580;-80
2023/12/11 10:23:41;;;;;;;13.68;4.05;;;;;;;10.86;94.09;99415.38;4978393;28;20051;-80
2023/12/11 10:26:08;;;;;;;19.13;4.55;;;;;;;10.84;95.08;99438.28;4977375;28;20059;-80
2023/12/11 10:28:37;;;;;;;18.85;4.70;;;;;;;10.81;94.92;99430.81;4978909;28;20046;-80
2023/12/11 10:31:04;;;;;;;18.25;4.25;;;;;;;10.87;95.01;99437.91;4979193;28;20062;-79
2023/12/11 10:33:32;;;;;;;14.68;4.30;;;;;;;10.83;95.02;99425.41;4977002;28;20117;-82
2023/12/11 10:36:12;;;;;;;14.88;4.57;;;;;;;10.86;95.29;99440.72;4976409;28;20513;-81
2023/12/11 10:38:40;;;;;;;16.60;4.43;;;;;;;10.82;95.54;99449.94;4974376;28;20106;-79
2023/12/11 10:41:07;;;;;;;12.55;4.03;;;;;;;10.71;95.67;99445.19;4978695;28;20473;-80
2023/12/11 10:43:41;;;;;;;18.60;4.70;;;;;;;10.77;95.89;99447.88;4970489;28;20306;-80
2023/12/11 10:46:08;;;;;;;15.45;4.57;;;;;;;10.97;95.06;99458.53;4976204;28;20066;-79
2023/12/11 10:48:35;;;;;;;13.52;4.28;;;;;;;11.09;95.10;99466.69;4969335;28;20070;-83
2023/12/11 10:51:03;;;;;;;20.52;4.55;;;;;;;11.13;95.54;99473.19;4978730;28;20106;-81
2023/12/11 10:53:30;;;;;;;17.80;4.63;;;;;;;11.01;95.14;99451.94;4977314;28;20058;-81
2023/12/11 10:55:59;;;;;;;11.85;4.90;;;;;;;11.15;95.32;99452.84;4974948;28;20470;-82
2023/12/11 10:58:28;;;;;;;20.40;4.25;;;;;;;11.29;94.99;99458.03;4978383;28;20046;-81
2023/12/11 11:01:01;;;;;;;17.80;4.75;;;;;;;11.16;94.54;99446.63;4978304;28;20178;-81
2023/12/11 11:03:30;;;;;;;22.52;5.13;;;;;;;11.06;95.25;99472.31;4979466;28;20089;-81
2023/12/11 11:05:58;;;;;;;17.90;4.95;;;;;;;11.16;95.53;99481.47;4976347;28;20130;-81
2023/12/11 11:08:32;;;;;;;17.85;4.13;;;;;;;11.11;95.58;99478.59;4977615;28;20054;-81
2023/12/11 11:11:05;;;;;;;16.48;4.75;;;;;;;11.09;95.88;99474.56;4978904;28;20043;-80
2023/12/11 11:13:37;;;;;;;18.23;4.40;;;;;;;11.02;96.10;99465.81;4974482;28;20089;-81
2023/12/11 11:16:08;;;;;;;18.80;4.93;;;;;;;10.96;97.20;99478.66;4976529;28;20113;-80
2023/12/11 11:19:04;;;;;;;16.27;4.40;;;;;;;10.89;98.16;99482.19;4978739;28;20051;-80
2023/12/11 11:21:31;;;;;;;19.70;5.38;;;;;;;10.96;98.06;99489.13;4975467;28;20046;-81
2023/12/11 11:23:57;;;;;;;19.77;5.22;;;;;;;10.85;98.13;99486.22;4977092;28;20098;-80
2023/12/11 11:26:34;;;;;;;21.50;4.75;;;;;;;10.78;98.71;99491.38;4973412;28;20101;-81
2023/12/11 11:29:00;;;;;;;14.65;5.38;;;;;;;10.76;99.42;99497.78;4976903;28;20427;-80
2023/12/11 11:31:52;;;;;;;22.70;5.18;;;;;;;10.84;100.00;99508.13;4972333;28;20504;-81
2023/12/11 11:34:44;;;;;;;15.05;4.18;;;;;;;10.84;100.00;99501.09;4977929;28;20051;-81
2023/12/11 11:37:13;;;;;;;16.38;5.93;;;;;;;10.83;100.00;99511.75;4978542;28;20145;-81